sensor_id;sensor_type;location;lat;lon;timestamp;P1;durP1;ratioP1;P2;durP2;ratioP2
23282;SDS011;11810;51.178;3.878;2022-09-03T00:01:02;4.05;;;2.60;;
23282;SDS011;11810;51.178;3.878;2022-09-03T00:03:42;2.85;;;2.20;;
23282;SDS011;11810;51.178;3.878;2022-09-03T00:06:47;5.43;;;2.13;;
23282;SDS011;11810;51.178;3.878;2022-09-03T00:09:14;3.55;;;2.35;;
23282;SDS011;11810;51.178;3.878;2022-09-03T00:14:54;5.10;;;2.20;;
23282;SDS011;11810;51.178;3.878;2022-09-03T00:19:45;9.43;;;2.40;;
23282;SDS011;11810;51.178;3.878;2022-09-03T00:22:20;4.80;;;2.00;;
23282;SDS011;11810;51.178;3.878;2022-09-03T00:25:16;6.10;;;2.17;;
23282;SDS011;11810;51.178;3.878;2022-09-03T00:28:05;3.80;;;2.15;;
23282;SDS011;11810;51.178;3.878;2022-09-03T00:30:37;4.68;;;2.20;;
23282;SDS011;11810;51.178;3.878;2022-09-03T00:33:10;2.90;;;1.88;;
23282;SDS011;11810;51.178;3.878;2022-09-03T00:35:52;8.00;;;2.58;;
23282;SDS011;11810;51.178;3.878;2022-09-03T00:38:29;5.63;;;2.22;;
23282;SDS011;11810;51.178;3.878;2022-09-03T00:46:20;5.38;;;2.40;;
23282;SDS011;11810;51.178;3.878;2022-09-03T00:49:03;4.75;;;2.10;;
23282;SDS011;11810;51.178;3.878;2022-09-03T00:55:02;5.82;;;2.20;;
23282;SDS011;11810;51.178;3.878;2022-09-03T01:00:19;20.48;;;3.05;;
23282;SDS011;11810;51.178;3.878;2022-09-03T01:03:03;7.13;;;2.28;;
23282;SDS011;11810;51.178;3.878;2022-09-03T01:10:55;5.28;;;2.20;;
23282;SDS011;11810;51.178;3.878;2022-09-03T01:13:42;10.77;;;2.10;;
23282;SDS011;11810;51.178;3.878;2022-09-03T01:19:24;7.63;;;2.40;;
23282;SDS011;11810;51.178;3.878;2022-09-03T01:22:12;7.68;;;2.47;;
23282;SDS011;11810;51.178;3.878;2022-09-03T01:30:19;4.28;;;2.25;;
23282;SDS011;11810;51.178;3.878;2022-09-03T01:36:00;7.22;;;2.08;;
23282;SDS011;11810;51.178;3.878;2022-09-03T01:44:21;9.05;;;2.47;;
23282;SDS011;11810;51.178;3.878;2022-09-03T01:52:42;6.32;;;2.03;;
23282;SDS011;11810;51.178;3.878;2022-09-03T01:55:24;3.95;;;2.15;;
23282;SDS011;11810;51.178;3.878;2022-09-03T02:00:59;6.80;;;2.35;;
23282;SDS011;11810;51.178;3.878;2022-09-03T02:03:35;8.18;;;2.15;;
23282;SDS011;11810;51.178;3.878;2022-09-03T02:06:05;7.97;;;1.80;;
23282;SDS011;11810;51.178;3.878;2022-09-03T02:08:33;7.07;;;2.25;;
23282;SDS011;11810;51.178;3.878;2022-09-03T02:10:59;16.20;;;2.78;;
23282;SDS011;11810;51.178;3.878;2022-09-03T02:15:56;13.25;;;2.40;;
23282;SDS011;11810;51.178;3.878;2022-09-03T02:18:30;6.72;;;2.50;;
23282;SDS011;11810;51.178;3.878;2022-09-03T02:21:01;4.68;;;2.30;;
23282;SDS011;11810;51.178;3.878;2022-09-03T02:23:27;4.90;;;2.10;;
23282;SDS011;11810;51.178;3.878;2022-09-03T02:26:00;6.47;;;2.40;;
23282;SDS011;11810;51.178;3.878;2022-09-03T02:28:28;8.68;;;2.58;;
23282;SDS011;11810;51.178;3.878;2022-09-03T02:30:56;5.07;;;2.30;;
23282;SDS011;11810;51.178;3.878;2022-09-03T02:33:22;5.70;;;2.35;;
23282;SDS011;11810;51.178;3.878;2022-09-03T02:35:49;9.70;;;2.40;;
23282;SDS011;11810;51.178;3.878;2022-09-03T02:38:17;7.40;;;2.55;;
23282;SDS011;11810;51.178;3.878;2022-09-03T02:40:49;7.25;;;2.28;;
23282;SDS011;11810;51.178;3.878;2022-09-03T02:43:19;5.40;;;2.10;;
23282;SDS011;11810;51.178;3.878;2022-09-03T02:46:07;4.07;;;2.38;;
23282;SDS011;11810;51.178;3.878;2022-09-03T02:48:36;8.00;;;2.55;;
23282;SDS011;11810;51.178;3.878;2022-09-03T02:51:02;5.30;;;2.85;;
23282;SDS011;11810;51.178;3.878;2022-09-03T02:53:28;7.20;;;2.72;;
23282;SDS011;11810;51.178;3.878;2022-09-03T02:56:00;5.45;;;2.53;;
23282;SDS011;11810;51.178;3.878;2022-09-03T02:58:27;6.60;;;2.88;;
23282;SDS011;11810;51.178;3.878;2022-09-03T03:00:55;8.65;;;3.45;;
23282;SDS011;11810;51.178;3.878;2022-09-03T03:03:22;8.52;;;3.35;;
23282;SDS011;11810;51.178;3.878;2022-09-03T03:08:15;7.53;;;3.15;;
23282;SDS011;11810;51.178;3.878;2022-09-03T03:10:48;7.03;;;3.60;;
23282;SDS011;11810;51.178;3.878;2022-09-03T03:13:16;9.80;;;3.53;;
23282;SDS011;11810;51.178;3.878;2022-09-03T03:15:43;7.57;;;3.63;;
23282;SDS011;11810;51.178;3.878;2022-09-03T03:18:09;5.50;;;3.20;;
23282;SDS011;11810;51.178;3.878;2022-09-03T03:20:38;6.55;;;3.10;;
23282;SDS011;11810;51.178;3.878;2022-09-03T03:23:05;9.65;;;3.45;;
23282;SDS011;11810;51.178;3.878;2022-09-03T03:25:35;7.05;;;3.60;;
23282;SDS011;11810;51.178;3.878;2022-09-03T03:28:03;4.70;;;3.42;;
23282;SDS011;11810;51.178;3.878;2022-09-03T03:30:30;9.98;;;3.55;;
23282;SDS011;11810;51.178;3.878;2022-09-03T03:32:57;9.35;;;4.15;;
23282;SDS011;11810;51.178;3.878;2022-09-03T03:35:23;10.18;;;3.88;;
23282;SDS011;11810;51.178;3.878;2022-09-03T03:37:49;7.45;;;3.72;;
23282;SDS011;11810;51.178;3.878;2022-09-03T03:40:15;10.60;;;4.10;;
23282;SDS011;11810;51.178;3.878;2022-09-03T03:42:41;6.43;;;4.03;;
23282;SDS011;11810;51.178;3.878;2022-09-03T03:45:08;6.55;;;3.80;;
23282;SDS011;11810;51.178;3.878;2022-09-03T03:47:34;9.52;;;3.42;;
23282;SDS011;11810;51.178;3.878;2022-09-03T03:50:01;10.95;;;3.83;;
23282;SDS011;11810;51.178;3.878;2022-09-03T03:52:27;5.32;;;3.67;;
23282;SDS011;11810;51.178;3.878;2022-09-03T03:54:53;9.43;;;3.80;;
23282;SDS011;11810;51.178;3.878;2022-09-03T03:57:20;7.60;;;3.65;;
23282;SDS011;11810;51.178;3.878;2022-09-03T03:59:47;7.63;;;4.47;;
23282;SDS011;11810;51.178;3.878;2022-09-03T04:02:14;8.95;;;4.25;;
23282;SDS011;11810;51.178;3.878;2022-09-03T04:04:40;5.05;;;3.90;;
23282;SDS011;11810;51.178;3.878;2022-09-03T04:07:06;9.52;;;4.78;;
23282;SDS011;11810;51.178;3.878;2022-09-03T04:09:33;9.98;;;5.30;;
23282;SDS011;11810;51.178;3.878;2022-09-03T04:11:59;8.70;;;4.68;;
23282;SDS011;11810;51.178;3.878;2022-09-03T04:14:25;8.05;;;4.45;;
23282;SDS011;11810;51.178;3.878;2022-09-03T04:16:51;6.30;;;4.43;;
23282;SDS011;11810;51.178;3.878;2022-09-03T04:19:17;7.53;;;4.63;;
23282;SDS011;11810;51.178;3.878;2022-09-03T04:21:43;8.07;;;6.15;;
23282;SDS011;11810;51.178;3.878;2022-09-03T04:24:10;9.25;;;5.97;;
23282;SDS011;11810;51.178;3.878;2022-09-03T04:26:36;11.10;;;6.82;;
23282;SDS011;11810;51.178;3.878;2022-09-03T04:29:05;9.77;;;6.00;;
23282;SDS011;11810;51.178;3.878;2022-09-03T04:31:32;8.85;;;6.63;;
23282;SDS011;11810;51.178;3.878;2022-09-03T04:34:00;12.10;;;6.85;;
23282;SDS011;11810;51.178;3.878;2022-09-03T04:36:26;11.23;;;6.38;;
23282;SDS011;11810;51.178;3.878;2022-09-03T04:38:54;18.60;;;8.25;;
23282;SDS011;11810;51.178;3.878;2022-09-03T04:41:23;13.32;;;7.75;;
23282;SDS011;11810;51.178;3.878;2022-09-03T04:43:52;8.32;;;7.40;;
23282;SDS011;11810;51.178;3.878;2022-09-03T04:46:20;11.77;;;8.68;;
23282;SDS011;11810;51.178;3.878;2022-09-03T04:48:48;15.93;;;9.27;;
23282;SDS011;11810;51.178;3.878;2022-09-03T04:51:16;14.65;;;9.55;;
23282;SDS011;11810;51.178;3.878;2022-09-03T04:53:45;10.80;;;9.18;;
23282;SDS011;11810;51.178;3.878;2022-09-03T04:56:20;14.90;;;9.02;;
23282;SDS011;11810;51.178;3.878;2022-09-03T04:58:48;14.48;;;10.57;;
23282;SDS011;11810;51.178;3.878;2022-09-03T05:01:19;12.50;;;10.20;;
23282;SDS011;11810;51.178;3.878;2022-09-03T05:03:46;13.63;;;9.73;;
23282;SDS011;11810;51.178;3.878;2022-09-03T05:06:13;15.35;;;10.10;;
23282;SDS011;11810;51.178;3.878;2022-09-03T05:08:41;13.73;;;10.73;;
23282;SDS011;11810;51.178;3.878;2022-09-03T05:11:08;16.90;;;11.38;;
23282;SDS011;11810;51.178;3.878;2022-09-03T05:13:35;14.88;;;11.25;;
23282;SDS011;11810;51.178;3.878;2022-09-03T05:16:05;16.33;;;12.60;;
23282;SDS011;11810;51.178;3.878;2022-09-03T05:18:32;12.73;;;11.43;;
23282;SDS011;11810;51.178;3.878;2022-09-03T05:21:11;17.35;;;11.50;;
23282;SDS011;11810;51.178;3.878;2022-09-03T05:23:42;13.73;;;11.05;;
23282;SDS011;11810;51.178;3.878;2022-09-03T05:26:10;17.17;;;12.73;;
23282;SDS011;11810;51.178;3.878;2022-09-03T05:28:42;12.75;;;11.20;;
23282;SDS011;11810;51.178;3.878;2022-09-03T05:31:09;14.57;;;13.02;;
23282;SDS011;11810;51.178;3.878;2022-09-03T05:33:36;15.90;;;13.95;;
23282;SDS011;11810;51.178;3.878;2022-09-03T05:36:06;15.80;;;12.95;;
23282;SDS011;11810;51.178;3.878;2022-09-03T05:38:34;14.10;;;12.13;;
23282;SDS011;11810;51.178;3.878;2022-09-03T05:41:02;17.08;;;13.07;;
23282;SDS011;11810;51.178;3.878;2022-09-03T05:43:30;16.05;;;12.98;;
23282;SDS011;11810;51.178;3.878;2022-09-03T05:46:01;20.80;;;15.82;;
23282;SDS011;11810;51.178;3.878;2022-09-03T05:48:45;21.20;;;14.30;;
23282;SDS011;11810;51.178;3.878;2022-09-03T05:51:15;18.83;;;15.05;;
23282;SDS011;11810;51.178;3.878;2022-09-03T05:53:43;18.85;;;15.05;;
23282;SDS011;11810;51.178;3.878;2022-09-03T05:56:20;16.83;;;15.05;;
23282;SDS011;11810;51.178;3.878;2022-09-03T05:58:52;16.70;;;14.15;;
23282;SDS011;11810;51.178;3.878;2022-09-03T06:01:21;14.90;;;12.43;;
23282;SDS011;11810;51.178;3.878;2022-09-03T06:03:55;14.93;;;13.13;;
23282;SDS011;11810;51.178;3.878;2022-09-03T06:06:21;17.17;;;13.27;;
23282;SDS011;11810;51.178;3.878;2022-09-03T06:08:50;17.27;;;13.60;;
23282;SDS011;11810;51.178;3.878;2022-09-03T06:11:20;15.75;;;14.05;;
23282;SDS011;11810;51.178;3.878;2022-09-03T06:13:50;15.85;;;14.13;;
23282;SDS011;11810;51.178;3.878;2022-09-03T06:16:16;17.02;;;13.75;;
23282;SDS011;11810;51.178;3.878;2022-09-03T06:18:42;17.00;;;13.95;;
23282;SDS011;11810;51.178;3.878;2022-09-03T06:21:08;18.73;;;14.85;;
23282;SDS011;11810;51.178;3.878;2022-09-03T06:23:34;16.02;;;14.32;;
23282;SDS011;11810;51.178;3.878;2022-09-03T06:28:30;20.20;;;14.82;;
23282;SDS011;11810;51.178;3.878;2022-09-03T06:30:58;19.85;;;14.27;;
23282;SDS011;11810;51.178;3.878;2022-09-03T06:33:26;17.00;;;15.15;;
23282;SDS011;11810;51.178;3.878;2022-09-03T06:35:56;17.90;;;15.70;;
23282;SDS011;11810;51.178;3.878;2022-09-03T06:38:24;16.17;;;14.38;;
23282;SDS011;11810;51.178;3.878;2022-09-03T06:40:52;23.27;;;16.02;;
23282;SDS011;11810;51.178;3.878;2022-09-03T06:43:22;18.90;;;15.60;;
23282;SDS011;11810;51.178;3.878;2022-09-03T06:45:55;18.50;;;15.80;;
23282;SDS011;11810;51.178;3.878;2022-09-03T06:50:52;23.55;;;17.05;;
23282;SDS011;11810;51.178;3.878;2022-09-03T06:53:30;22.70;;;17.27;;
23282;SDS011;11810;51.178;3.878;2022-09-03T06:55:59;19.98;;;15.63;;
23282;SDS011;11810;51.178;3.878;2022-09-03T06:58:30;19.33;;;17.08;;
23282;SDS011;11810;51.178;3.878;2022-09-03T07:01:03;23.20;;;15.98;;
23282;SDS011;11810;51.178;3.878;2022-09-03T07:03:32;19.00;;;15.70;;
23282;SDS011;11810;51.178;3.878;2022-09-03T07:06:03;19.92;;;16.80;;
23282;SDS011;11810;51.178;3.878;2022-09-03T07:08:31;21.13;;;18.08;;
23282;SDS011;11810;51.178;3.878;2022-09-03T07:11:01;20.58;;;18.38;;
23282;SDS011;11810;51.178;3.878;2022-09-03T07:13:36;19.98;;;16.40;;
23282;SDS011;11810;51.178;3.878;2022-09-03T07:16:08;19.77;;;17.20;;
23282;SDS011;11810;51.178;3.878;2022-09-03T07:18:35;18.95;;;16.85;;
23282;SDS011;11810;51.178;3.878;2022-09-03T07:21:03;23.85;;;19.50;;
23282;SDS011;11810;51.178;3.878;2022-09-03T07:23:34;24.67;;;18.98;;
23282;SDS011;11810;51.178;3.878;2022-09-03T07:26:24;20.95;;;17.90;;
23282;SDS011;11810;51.178;3.878;2022-09-03T07:28:50;22.42;;;19.25;;
23282;SDS011;11810;51.178;3.878;2022-09-03T07:31:23;20.25;;;18.17;;
23282;SDS011;11810;51.178;3.878;2022-09-03T07:33:58;25.13;;;18.25;;
23282;SDS011;11810;51.178;3.878;2022-09-03T07:36:27;22.05;;;17.42;;
23282;SDS011;11810;51.178;3.878;2022-09-03T07:38:54;20.08;;;16.30;;
23282;SDS011;11810;51.178;3.878;2022-09-03T07:41:21;22.00;;;16.65;;
23282;SDS011;11810;51.178;3.878;2022-09-03T07:43:49;24.77;;;17.23;;
23282;SDS011;11810;51.178;3.878;2022-09-03T07:46:15;23.45;;;17.50;;
23282;SDS011;11810;51.178;3.878;2022-09-03T07:48:55;18.83;;;16.20;;
23282;SDS011;11810;51.178;3.878;2022-09-03T07:51:23;21.95;;;17.27;;
23282;SDS011;11810;51.178;3.878;2022-09-03T07:53:51;25.17;;;17.08;;
23282;SDS011;11810;51.178;3.878;2022-09-03T07:56:19;22.00;;;18.02;;
23282;SDS011;11810;51.178;3.878;2022-09-03T07:58:45;20.13;;;16.58;;
23282;SDS011;11810;51.178;3.878;2022-09-03T08:01:13;20.33;;;16.13;;
23282;SDS011;11810;51.178;3.878;2022-09-03T08:03:44;20.30;;;14.52;;
23282;SDS011;11810;51.178;3.878;2022-09-03T08:06:11;17.40;;;15.13;;
23282;SDS011;11810;51.178;3.878;2022-09-03T08:08:38;16.73;;;13.00;;
23282;SDS011;11810;51.178;3.878;2022-09-03T08:11:06;16.35;;;10.98;;
23282;SDS011;11810;51.178;3.878;2022-09-03T08:13:37;18.15;;;11.20;;
23282;SDS011;11810;51.178;3.878;2022-09-03T08:16:05;13.85;;;10.70;;
23282;SDS011;11810;51.178;3.878;2022-09-03T08:18:35;13.65;;;10.68;;
23282;SDS011;11810;51.178;3.878;2022-09-03T08:21:09;13.10;;;10.13;;
23282;SDS011;11810;51.178;3.878;2022-09-03T08:23:41;12.82;;;9.95;;
23282;SDS011;11810;51.178;3.878;2022-09-03T08:26:08;15.80;;;8.77;;
23282;SDS011;11810;51.178;3.878;2022-09-03T08:28:35;11.73;;;8.90;;
23282;SDS011;11810;51.178;3.878;2022-09-03T08:33:30;11.80;;;8.68;;
23282;SDS011;11810;51.178;3.878;2022-09-03T08:36:03;18.13;;;9.13;;
23282;SDS011;11810;51.178;3.878;2022-09-03T08:38:37;14.23;;;8.48;;
23282;SDS011;11810;51.178;3.878;2022-09-03T08:41:06;16.60;;;8.98;;
23282;SDS011;11810;51.178;3.878;2022-09-03T08:46:07;16.60;;;8.35;;
23282;SDS011;11810;51.178;3.878;2022-09-03T08:48:34;11.52;;;7.30;;
23282;SDS011;11810;51.178;3.878;2022-09-03T08:51:00;10.80;;;6.53;;
23282;SDS011;11810;51.178;3.878;2022-09-03T08:53:44;11.80;;;6.35;;
23282;SDS011;11810;51.178;3.878;2022-09-03T08:56:27;12.50;;;7.00;;
23282;SDS011;11810;51.178;3.878;2022-09-03T08:58:55;12.10;;;6.25;;
23282;SDS011;11810;51.178;3.878;2022-09-03T09:01:25;13.45;;;6.00;;
23282;SDS011;11810;51.178;3.878;2022-09-03T09:18:21;8.95;;;6.25;;
23282;SDS011;11810;51.178;3.878;2022-09-03T09:23:07;11.77;;;7.57;;
23282;SDS011;11810;51.178;3.878;2022-09-03T09:25:49;14.60;;;6.90;;
23282;SDS011;11810;51.178;3.878;2022-09-03T09:28:16;11.80;;;6.97;;
23282;SDS011;11810;51.178;3.878;2022-09-03T09:30:48;9.52;;;6.43;;
23282;SDS011;11810;51.178;3.878;2022-09-03T09:33:19;10.18;;;6.20;;
23282;SDS011;11810;51.178;3.878;2022-09-03T09:35:45;11.18;;;6.88;;
23282;SDS011;11810;51.178;3.878;2022-09-03T09:38:11;9.10;;;6.68;;
23282;SDS011;11810;51.178;3.878;2022-09-03T09:40:40;9.52;;;5.00;;
23282;SDS011;11810;51.178;3.878;2022-09-03T09:43:14;8.82;;;6.10;;
23282;SDS011;11810;51.178;3.878;2022-09-03T09:45:44;11.13;;;5.60;;
23282;SDS011;11810;51.178;3.878;2022-09-03T09:48:30;7.20;;;5.25;;
23282;SDS011;11810;51.178;3.878;2022-09-03T09:53:36;7.68;;;5.70;;
23282;SDS011;11810;51.178;3.878;2022-09-03T09:56:03;7.03;;;4.70;;
23282;SDS011;11810;51.178;3.878;2022-09-03T09:58:31;7.13;;;5.20;;
23282;SDS011;11810;51.178;3.878;2022-09-03T10:03:39;6.55;;;4.60;;
23282;SDS011;11810;51.178;3.878;2022-09-03T10:06:14;7.38;;;4.55;;
23282;SDS011;11810;51.178;3.878;2022-09-03T10:09:06;6.40;;;4.53;;
23282;SDS011;11810;51.178;3.878;2022-09-03T10:11:33;7.25;;;4.57;;
23282;SDS011;11810;51.178;3.878;2022-09-03T10:14:02;5.38;;;4.25;;
23282;SDS011;11810;51.178;3.878;2022-09-03T10:16:32;7.95;;;5.45;;
23282;SDS011;11810;51.178;3.878;2022-09-03T10:21:52;7.90;;;5.45;;
23282;SDS011;11810;51.178;3.878;2022-09-03T10:29:38;8.25;;;4.32;;
23282;SDS011;11810;51.178;3.878;2022-09-03T10:43:53;4.35;;;3.92;;
23282;SDS011;11810;51.178;3.878;2022-09-03T10:47:19;5.22;;;3.72;;
23282;SDS011;11810;51.178;3.878;2022-09-03T11:00:50;4.88;;;4.30;;
23282;SDS011;11810;51.178;3.878;2022-09-03T11:08:54;4.22;;;3.63;;
23282;SDS011;11810;51.178;3.878;2022-09-03T11:11:34;6.95;;;4.60;;
23282;SDS011;11810;51.178;3.878;2022-09-03T11:14:21;6.43;;;4.75;;
23282;SDS011;11810;51.178;3.878;2022-09-03T11:17:14;8.23;;;4.82;;
23282;SDS011;11810;51.178;3.878;2022-09-03T11:20:04;8.90;;;4.78;;
23282;SDS011;11810;51.178;3.878;2022-09-03T11:22:35;5.90;;;3.50;;
23282;SDS011;11810;51.178;3.878;2022-09-03T11:25:03;4.70;;;3.78;;
23282;SDS011;11810;51.178;3.878;2022-09-03T11:30:07;3.15;;;2.78;;
23282;SDS011;11810;51.178;3.878;2022-09-03T11:38:00;4.40;;;2.65;;
23282;SDS011;11810;51.178;3.878;2022-09-03T11:40:35;4.88;;;2.95;;
23282;SDS011;11810;51.178;3.878;2022-09-03T11:45:48;4.82;;;2.78;;
23282;SDS011;11810;51.178;3.878;2022-09-03T11:48:42;7.90;;;2.92;;
23282;SDS011;11810;51.178;3.878;2022-09-03T11:56:42;5.07;;;3.28;;
23282;SDS011;11810;51.178;3.878;2022-09-03T12:01:43;5.63;;;4.88;;
23282;SDS011;11810;51.178;3.878;2022-09-03T12:04:30;4.85;;;3.80;;
23282;SDS011;11810;51.178;3.878;2022-09-03T12:12:44;9.77;;;4.20;;
23282;SDS011;11810;51.178;3.878;2022-09-03T12:18:33;6.28;;;3.63;;
23282;SDS011;11810;51.178;3.878;2022-09-03T12:21:02;5.93;;;3.72;;
23282;SDS011;11810;51.178;3.878;2022-09-03T12:23:44;3.85;;;3.30;;
23282;SDS011;11810;51.178;3.878;2022-09-03T12:26:16;6.90;;;4.22;;
23282;SDS011;11810;51.178;3.878;2022-09-03T12:28:52;4.75;;;3.42;;
23282;SDS011;11810;51.178;3.878;2022-09-03T12:31:29;5.55;;;3.38;;
23282;SDS011;11810;51.178;3.878;2022-09-03T12:34:00;6.32;;;3.63;;
23282;SDS011;11810;51.178;3.878;2022-09-03T12:36:36;4.55;;;2.55;;
23282;SDS011;11810;51.178;3.878;2022-09-03T12:39:09;6.40;;;3.28;;
23282;SDS011;11810;51.178;3.878;2022-09-03T12:41:35;7.80;;;3.33;;
23282;SDS011;11810;51.178;3.878;2022-09-03T12:44:02;7.15;;;3.40;;
23282;SDS011;11810;51.178;3.878;2022-09-03T12:46:29;3.88;;;3.20;;
23282;SDS011;11810;51.178;3.878;2022-09-03T12:51:39;5.95;;;3.58;;
23282;SDS011;11810;51.178;3.878;2022-09-03T12:54:07;6.30;;;3.72;;
23282;SDS011;11810;51.178;3.878;2022-09-03T12:56:41;5.43;;;3.85;;
23282;SDS011;11810;51.178;3.878;2022-09-03T12:59:15;4.47;;;3.80;;
23282;SDS011;11810;51.178;3.878;2022-09-03T13:01:48;4.63;;;3.88;;
23282;SDS011;11810;51.178;3.878;2022-09-03T13:04:24;4.25;;;3.22;;
23282;SDS011;11810;51.178;3.878;2022-09-03T13:07:03;6.72;;;3.70;;
23282;SDS011;11810;51.178;3.878;2022-09-03T13:09:35;5.25;;;3.15;;
23282;SDS011;11810;51.178;3.878;2022-09-03T13:12:03;5.43;;;3.20;;
23282;SDS011;11810;51.178;3.878;2022-09-03T13:14:41;5.38;;;3.83;;
23282;SDS011;11810;51.178;3.878;2022-09-03T13:17:20;4.80;;;3.42;;
23282;SDS011;11810;51.178;3.878;2022-09-03T13:20:20;10.80;;;3.67;;
23282;SDS011;11810;51.178;3.878;2022-09-03T13:26:29;14.17;;;2.90;;
23282;SDS011;11810;51.178;3.878;2022-09-03T13:35:11;4.57;;;2.88;;
23282;SDS011;11810;51.178;3.878;2022-09-03T13:40:45;3.78;;;3.05;;
23282;SDS011;11810;51.178;3.878;2022-09-03T13:46:28;4.25;;;3.08;;
23282;SDS011;11810;51.178;3.878;2022-09-03T13:49:20;5.80;;;3.10;;
23282;SDS011;11810;51.178;3.878;2022-09-03T13:52:15;4.25;;;2.33;;
23282;SDS011;11810;51.178;3.878;2022-09-03T13:54:54;4.75;;;2.65;;
23282;SDS011;11810;51.178;3.878;2022-09-03T13:57:29;4.43;;;2.75;;
23282;SDS011;11810;51.178;3.878;2022-09-03T14:00:07;4.40;;;2.90;;
23282;SDS011;11810;51.178;3.878;2022-09-03T14:23:46;3.17;;;2.88;;
23282;SDS011;11810;51.178;3.878;2022-09-03T14:26:29;3.75;;;3.00;;
23282;SDS011;11810;51.178;3.878;2022-09-03T14:28:58;4.93;;;2.75;;
23282;SDS011;11810;51.178;3.878;2022-09-03T14:31:49;4.03;;;2.67;;
23282;SDS011;11810;51.178;3.878;2022-09-03T14:37:17;3.67;;;3.28;;
23282;SDS011;11810;51.178;3.878;2022-09-03T14:39:54;5.85;;;2.75;;
23282;SDS011;11810;51.178;3.878;2022-09-03T14:48:14;3.40;;;3.05;;
23282;SDS011;11810;51.178;3.878;2022-09-03T14:56:32;3.50;;;2.40;;
23282;SDS011;11810;51.178;3.878;2022-09-03T15:01:43;3.80;;;2.30;;
23282;SDS011;11810;51.178;3.878;2022-09-03T15:12:41;2.83;;;2.33;;
23282;SDS011;11810;51.178;3.878;2022-09-03T15:15:12;6.37;;;2.40;;
23282;SDS011;11810;51.178;3.878;2022-09-03T15:20:49;3.28;;;2.30;;
23282;SDS011;11810;51.178;3.878;2022-09-03T15:26:21;3.83;;;2.45;;
23282;SDS011;11810;51.178;3.878;2022-09-03T15:29:09;6.00;;;2.43;;
23282;SDS011;11810;51.178;3.878;2022-09-03T15:36:51;2.85;;;2.10;;
23282;SDS011;11810;51.178;3.878;2022-09-03T15:39:21;2.70;;;2.20;;
23282;SDS011;11810;51.178;3.878;2022-09-03T15:41:53;3.38;;;1.73;;
23282;SDS011;11810;51.178;3.878;2022-09-03T15:44:23;2.67;;;2.00;;
23282;SDS011;11810;51.178;3.878;2022-09-03T16:00:37;2.42;;;1.90;;
23282;SDS011;11810;51.178;3.878;2022-09-03T16:03:10;7.07;;;2.20;;
23282;SDS011;11810;51.178;3.878;2022-09-03T16:05:46;3.70;;;2.03;;
23282;SDS011;11810;51.178;3.878;2022-09-03T16:14:19;4.18;;;2.33;;
23282;SDS011;11810;51.178;3.878;2022-09-03T16:20:13;6.85;;;2.42;;
23282;SDS011;11810;51.178;3.878;2022-09-03T16:25:33;4.60;;;2.65;;
23282;SDS011;11810;51.178;3.878;2022-09-03T16:33:17;6.05;;;2.90;;
23282;SDS011;11810;51.178;3.878;2022-09-03T16:42:06;4.57;;;3.30;;
23282;SDS011;11810;51.178;3.878;2022-09-03T16:47:35;4.38;;;2.80;;
23282;SDS011;11810;51.178;3.878;2022-09-03T16:57:53;4.13;;;2.40;;
23282;SDS011;11810;51.178;3.878;2022-09-03T17:06:19;6.32;;;2.72;;
23282;SDS011;11810;51.178;3.878;2022-09-03T17:09:06;4.63;;;2.85;;
23282;SDS011;11810;51.178;3.878;2022-09-03T17:19:58;6.05;;;3.00;;
23282;SDS011;11810;51.178;3.878;2022-09-03T17:25:34;6.82;;;2.70;;
23282;SDS011;11810;51.178;3.878;2022-09-03T17:28:15;4.25;;;3.08;;
23282;SDS011;11810;51.178;3.878;2022-09-03T17:34:13;7.32;;;2.90;;
23282;SDS011;11810;51.178;3.878;2022-09-03T17:43:22;4.03;;;2.88;;
23282;SDS011;11810;51.178;3.878;2022-09-03T17:46:03;9.63;;;3.30;;
23282;SDS011;11810;51.178;3.878;2022-09-03T17:48:52;6.60;;;2.90;;
23282;SDS011;11810;51.178;3.878;2022-09-03T17:53:51;5.55;;;3.03;;
23282;SDS011;11810;51.178;3.878;2022-09-03T17:56:59;9.07;;;3.38;;
23282;SDS011;11810;51.178;3.878;2022-09-03T17:59:45;10.60;;;3.75;;
23282;SDS011;11810;51.178;3.878;2022-09-03T18:02:29;5.45;;;2.85;;
23282;SDS011;11810;51.178;3.878;2022-09-03T18:04:58;3.78;;;3.15;;
23282;SDS011;11810;51.178;3.878;2022-09-03T18:12:56;6.63;;;3.35;;
23282;SDS011;11810;51.178;3.878;2022-09-03T18:18:19;5.68;;;3.40;;
23282;SDS011;11810;51.178;3.878;2022-09-03T18:20:52;6.47;;;3.40;;
23282;SDS011;11810;51.178;3.878;2022-09-03T18:23:51;5.18;;;3.78;;
23282;SDS011;11810;51.178;3.878;2022-09-03T18:26:51;6.60;;;3.58;;
23282;SDS011;11810;51.178;3.878;2022-09-03T18:30:00;6.20;;;4.03;;
23282;SDS011;11810;51.178;3.878;2022-09-03T18:32:48;5.38;;;4.00;;
23282;SDS011;11810;51.178;3.878;2022-09-03T18:35:33;12.02;;;6.65;;
23282;SDS011;11810;51.178;3.878;2022-09-03T18:38:25;14.38;;;9.50;;
23282;SDS011;11810;51.178;3.878;2022-09-03T18:44:08;19.73;;;10.63;;
23282;SDS011;11810;51.178;3.878;2022-09-03T18:47:07;15.38;;;12.15;;
23282;SDS011;11810;51.178;3.878;2022-09-03T18:50:12;15.50;;;10.30;;
23282;SDS011;11810;51.178;3.878;2022-09-03T18:59:01;9.32;;;6.18;;
23282;SDS011;11810;51.178;3.878;2022-09-03T19:02:12;8.73;;;4.90;;
23282;SDS011;11810;51.178;3.878;2022-09-03T19:13:55;7.10;;;5.35;;
23282;SDS011;11810;51.178;3.878;2022-09-03T19:23:07;8.47;;;5.20;;
23282;SDS011;11810;51.178;3.878;2022-09-03T19:25:53;7.38;;;4.70;;
23282;SDS011;11810;51.178;3.878;2022-09-03T19:28:41;9.00;;;4.82;;
23282;SDS011;11810;51.178;3.878;2022-09-03T19:32:16;7.00;;;4.35;;
23282;SDS011;11810;51.178;3.878;2022-09-03T19:37:42;5.20;;;4.18;;
23282;SDS011;11810;51.178;3.878;2022-09-03T19:43:47;6.35;;;4.75;;
23282;SDS011;11810;51.178;3.878;2022-09-03T19:47:03;6.85;;;4.25;;
23282;SDS011;11810;51.178;3.878;2022-09-03T19:50:02;9.77;;;4.55;;
23282;SDS011;11810;51.178;3.878;2022-09-03T19:52:57;10.20;;;4.57;;
23282;SDS011;11810;51.178;3.878;2022-09-03T19:55:45;5.20;;;4.40;;
23282;SDS011;11810;51.178;3.878;2022-09-03T19:58:32;5.93;;;4.60;;
23282;SDS011;11810;51.178;3.878;2022-09-03T20:01:33;7.32;;;4.65;;
23282;SDS011;11810;51.178;3.878;2022-09-03T20:04:19;8.50;;;4.78;;
23282;SDS011;11810;51.178;3.878;2022-09-03T20:07:10;7.22;;;4.53;;
23282;SDS011;11810;51.178;3.878;2022-09-03T20:09:55;7.95;;;4.45;;
23282;SDS011;11810;51.178;3.878;2022-09-03T20:12:44;5.45;;;4.95;;
23282;SDS011;11810;51.178;3.878;2022-09-03T20:15:35;10.82;;;6.00;;
23282;SDS011;11810;51.178;3.878;2022-09-03T20:18:09;7.07;;;5.15;;
23282;SDS011;11810;51.178;3.878;2022-09-03T20:23:32;9.95;;;6.15;;
23282;SDS011;11810;51.178;3.878;2022-09-03T20:28:42;11.02;;;5.75;;
23282;SDS011;11810;51.178;3.878;2022-09-03T20:31:47;8.57;;;5.85;;
23282;SDS011;11810;51.178;3.878;2022-09-03T20:34:30;9.32;;;5.18;;
23282;SDS011;11810;51.178;3.878;2022-09-03T20:39:40;8.35;;;4.78;;
23282;SDS011;11810;51.178;3.878;2022-09-03T20:45:03;6.32;;;5.20;;
23282;SDS011;11810;51.178;3.878;2022-09-03T20:50:20;6.93;;;5.65;;
23282;SDS011;11810;51.178;3.878;2022-09-03T20:55:47;7.00;;;5.35;;
23282;SDS011;11810;51.178;3.878;2022-09-03T20:58:27;8.70;;;5.47;;
23282;SDS011;11810;51.178;3.878;2022-09-03T21:01:13;10.98;;;6.32;;
23282;SDS011;11810;51.178;3.878;2022-09-03T21:07:26;8.82;;;5.68;;
23282;SDS011;11810;51.178;3.878;2022-09-03T21:14:50;10.15;;;5.30;;
23282;SDS011;11810;51.178;3.878;2022-09-03T21:28:06;11.35;;;6.03;;
23282;SDS011;11810;51.178;3.878;2022-09-03T21:30:40;10.80;;;6.38;;
23282;SDS011;11810;51.178;3.878;2022-09-03T21:33:19;15.15;;;6.70;;
23282;SDS011;11810;51.178;3.878;2022-09-03T21:36:04;9.07;;;7.00;;
23282;SDS011;11810;51.178;3.878;2022-09-03T21:38:38;8.82;;;6.72;;
23282;SDS011;11810;51.178;3.878;2022-09-03T21:41:28;6.78;;;6.15;;